Pagina principală
METAR-TAF:

METAR-TAF

Aeroporturi :

Alice Springs, Australia

Latitudine: 23-48S, longitudine: 133-53E, elevație: 545 m

Observații meteo curente

Raportul a fost făcut în urmă cu 49 de minute, la 23:30 UTC
Vânt 11 kt de la Est/Sud-est
Temperatură 29°C
Umiditate 27%
Presiune 1015 hPa
Vizibilitate de 10 km sau mai mult

METAR: YBAS 232330Z AUTO 11011KT 9999 // NCD 29/08 Q1015 RF00.0/000.0

Ora: 09:49 (00:19 UTC)

Prognoză

Raportul a fost făcut în urmă cu 1 oră și 18 de minute, la 23:01 UTC
Prognoză valabilă de la 24 ora 00 UTC la 25 ora 00 UTC
Vânt 14 kt de la Sud-est
Vizibilitate de 10 km sau mai mult
nu există nori sub 1.500 m și nici cumulonimbus
De la 24 ora 1500 UTC
Vânt 5 kt de la Est
Vizibilitate de 10 km sau mai mult
nu există nori sub 1.500 m și nici cumulonimbus

TAF: YBAS 232301Z 2400/2500 13014KT CAVOK FM241500 09005KT CAVOK

Observații și prognoze meteo pentru peste 4.000 de aeroporturi (rapoarte METAR și TAF).

Stațiile disponibile sunt reprezentate pe hartă prin puncte galbene și roșii.

Țineți indicatorul mouse-ului pe punctul dorit pentru a vedea denumirea stației.

Apoi, faceți clic pentru a vedea observațiile și prognozele meteorologice.

Pentru a schimba harta: Pentru mărire, faceți clic pe butoanele verzi cu cruce neagră; pentru micșorare, pe butonul verde cu o liniuță; pentru hărți învecinate, pe săgețile verzi.


METAR-TAF: